createdAt,value
2016-04-09T00:00:54.992Z,42.1
2016-04-09T00:01:55.010Z,42.19
2016-04-09T00:02:55.060Z,42.19
2016-04-09T00:03:55.062Z,42.19
2016-04-09T00:04:55.081Z,42.1
2016-04-09T00:05:55.099Z,42.38
2016-04-09T00:06:55.117Z,42.1
2016-04-09T00:07:55.151Z,42.1
2016-04-09T00:08:55.186Z,42.19
2016-04-09T00:09:55.189Z,42.48
2016-04-09T00:10:55.206Z,41.91
2016-04-09T00:11:55.287Z,41.88
2016-04-09T00:12:55.243Z,42.48
2016-04-09T00:13:55.277Z,42.74
2016-04-09T00:14:55.295Z,42.55
2016-04-09T00:15:55.314Z,41.88
2016-04-09T00:16:55.347Z,42.36
2016-04-09T00:17:55.397Z,42.46
2016-04-09T00:18:55.384Z,42.46
2016-04-09T00:19:59.105Z,42.55
2016-04-09T00:20:55.421Z,42.55
2016-04-09T00:21:55.455Z,42.46
2016-04-09T00:22:55.474Z,42.65
2016-04-09T00:23:55.491Z,42.93
2016-04-09T00:24:55.510Z,43.03
2016-04-09T00:25:55.528Z,42.74
2016-04-09T00:26:55.562Z,42.84
2016-04-09T00:27:55.565Z,42.84
2016-04-09T00:28:55.582Z,42.93
2016-04-09T00:29:55.617Z,42.84
2016-04-09T00:30:55.634Z,42.93
2016-04-09T00:31:55.669Z,43.13
2016-04-09T00:32:55.593Z,43.13
2016-04-09T00:33:55.689Z,43.22
2016-04-09T00:34:55.723Z,43.41
2016-04-09T00:35:55.742Z,43.13
2016-04-09T00:36:55.761Z,42.55
2016-04-09T00:37:55.779Z,42.93
2016-04-09T00:38:55.813Z,43.13
2016-04-09T00:39:55.831Z,43.03
2016-04-09T00:40:55.849Z,43.13
2016-04-09T00:41:55.867Z,43.22
2016-04-09T00:42:55.902Z,43.03
2016-04-09T00:43:55.920Z,43.32
2016-04-09T00:44:55.939Z,43.03
2016-04-09T00:45:55.973Z,43.49
2016-04-09T00:46:55.975Z,43.41
2016-04-09T00:47:56.009Z,43.32
2016-04-09T00:48:56.011Z,43.41
2016-04-09T00:49:56.030Z,43.41
2016-04-09T00:50:56.064Z,43.41
2016-04-09T00:51:56.082Z,43.6
2016-04-09T00:52:56.101Z,43.6
2016-04-09T00:53:56.134Z,43.58
2016-04-09T00:54:56.152Z,43.58
2016-04-09T00:55:56.155Z,43.68
2016-04-09T00:56:56.204Z,43.87
2016-04-09T00:57:56.208Z,43.68
2016-04-09T00:58:56.226Z,43.77
2016-04-09T00:59:56.260Z,43.68
2016-04-09T01:00:56.279Z,43.58
2016-04-09T01:01:56.296Z,43.68
2016-04-09T01:02:56.346Z,43.68
2016-04-09T01:03:56.364Z,43.96
2016-04-09T01:04:56.367Z,43.87
2016-04-09T01:05:56.386Z,43.87
2016-04-09T01:06:56.403Z,43.87
2016-04-09T01:07:56.281Z,43.87
2016-04-09T01:08:56.439Z,43.96
2016-04-09T01:09:56.458Z,44.15
2016-04-09T01:10:56.477Z,44.15
2016-04-09T01:11:56.511Z,43.96
2016-04-09T01:12:56.530Z,44.06
2016-04-09T01:13:56.533Z,44.06
2016-04-09T01:14:56.566Z,43.96
2016-04-09T01:15:56.600Z,43.87
2016-04-09T01:16:56.602Z,44.06
2016-04-09T01:17:56.636Z,44.34
2016-04-09T01:18:56.655Z,44.06
2016-04-09T01:19:56.673Z,44.25
2016-04-09T01:20:56.692Z,44.25
2016-04-09T01:21:56.710Z,44.53
2016-04-09T01:22:56.728Z,44.34
2016-04-09T01:23:56.747Z,44.25
2016-04-09T01:24:56.780Z,44.53
2016-04-09T01:25:56.783Z,44.34
2016-04-09T01:26:56.817Z,44.34
2016-04-09T01:27:56.835Z,44.63
2016-04-09T01:28:56.854Z,44.53
2016-04-09T01:29:56.871Z,44.63
2016-04-09T01:30:56.890Z,44.63
2016-04-09T01:31:56.908Z,44.73
2016-04-09T01:32:56.817Z,44.73
2016-04-09T01:33:56.961Z,44.82
2016-04-09T01:34:56.979Z,44.82
2016-04-09T01:35:56.998Z,44.92
2016-04-09T01:36:57.007Z,44.89
2016-04-09T01:37:57.040Z,44.92
2016-04-09T01:38:57.059Z,44.73
2016-04-09T01:39:57.076Z,44.92
2016-04-09T01:40:57.095Z,44.92
2016-04-09T01:41:57.113Z,45.01
2016-04-09T01:42:57.131Z,44.89
2016-04-09T01:43:57.165Z,45.29
2016-04-09T01:44:57.183Z,45.18
2016-04-09T01:45:57.186Z,45.01
2016-04-09T01:46:57.236Z,45.08
2016-04-09T01:47:57.129Z,45.08
2016-04-09T01:48:57.257Z,45.1
2016-04-09T01:49:57.307Z,44.99
2016-04-09T01:50:57.294Z,45.08
2016-04-09T01:51:57.328Z,45.08
2016-04-09T01:52:57.346Z,45.28
2016-04-09T01:53:57.364Z,45.28
2016-04-09T01:54:57.383Z,45.28
2016-04-09T01:55:57.400Z,45.28
2016-04-09T01:56:57.419Z,45.28
2016-04-09T01:57:57.437Z,45.28
2016-04-09T01:58:57.471Z,45.28
2016-04-09T01:59:57.490Z,45.37
2016-04-09T02:00:57.508Z,45.37
2016-04-09T02:01:57.511Z,45.56
2016-04-09T02:02:57.560Z,45.56
2016-04-09T02:03:57.563Z,45.37
2016-04-09T02:04:57.581Z,45.56
2016-04-09T02:05:57.615Z,45.47
2016-04-09T02:06:57.618Z,45.37
2016-04-09T02:07:57.651Z,45.37
2016-04-09T02:08:57.685Z,45.75
2016-04-09T02:09:57.703Z,45.56
2016-04-09T02:10:57.706Z,45.56
2016-04-09T02:11:57.740Z,45.75
2016-04-09T02:12:57.759Z,45.56
2016-04-09T02:13:57.761Z,45.84
2016-04-09T02:14:57.796Z,45.75
2016-04-09T02:15:57.814Z,45.75
2016-04-09T02:16:57.832Z,45.84
2016-04-09T02:17:57.882Z,45.84
2016-04-09T02:18:57.869Z,45.75
2016-04-09T02:19:57.887Z,46.04
2016-04-09T02:20:57.921Z,46.23
2016-04-09T02:21:57.924Z,46.04
2016-04-09T02:22:57.958Z,46.23
2016-04-09T02:23:57.976Z,46.04
2016-04-09T02:24:57.995Z,45.84
2016-04-09T02:25:58.013Z,46.13
2016-04-09T02:26:58.047Z,46.13
2016-04-09T02:27:58.066Z,46.13
2016-04-09T02:28:58.083Z,46.23
2016-04-09T02:29:58.102Z,46.42
2016-04-09T02:30:58.135Z,46.51
2016-04-09T02:31:58.122Z,46.42
2016-04-09T02:32:58.156Z,46.61
2016-04-09T02:33:58.174Z,46.2
2016-04-09T02:34:58.193Z,46.8
2016-04-09T02:35:58.242Z,46.39
2016-04-09T02:36:58.229Z,46.39
2016-04-09T02:37:58.248Z,46.58
2016-04-09T02:38:58.282Z,46.3
2016-04-09T02:39:58.301Z,46.3
2016-04-09T02:40:58.304Z,46.58
2016-04-09T02:41:58.337Z,46.3
2016-04-09T02:42:58.356Z,46.49
2016-04-09T02:43:58.373Z,46.78
2016-04-09T02:44:58.407Z,46.87
2016-04-09T02:45:58.410Z,46.97
2016-04-09T02:46:58.428Z,46.78
2016-04-09T02:47:58.462Z,46.68
2016-04-09T02:48:58.465Z,46.87
2016-04-09T02:49:58.500Z,46.68
2016-04-09T02:50:58.517Z,46.68
2016-04-09T02:51:58.536Z,46.87
2016-04-09T02:52:58.554Z,46.68
2016-04-09T02:53:58.572Z,46.87
2016-04-09T02:54:58.591Z,46.97
2016-04-09T02:55:58.624Z,46.87
2016-04-09T02:56:58.627Z,46.3
2016-04-09T02:57:58.661Z,46.87
2016-04-09T02:58:58.679Z,46.2
2016-04-09T02:59:58.698Z,46.78
2016-04-09T03:00:58.700Z,46.87
2016-04-09T03:01:58.735Z,46.68
2016-04-09T03:02:58.768Z,47.25
2016-04-09T03:03:58.771Z,47.16
2016-04-09T03:04:58.790Z,46.97
2016-04-09T03:05:58.807Z,46.87
2016-04-09T03:06:58.826Z,46.78
2016-04-09T03:07:58.844Z,47.25
2016-04-09T03:08:58.878Z,47.34
2016-04-09T03:09:58.881Z,47.34
2016-04-09T03:10:58.915Z,47.16
2016-04-09T03:11:58.933Z,47.25
2016-04-09T03:12:58.951Z,47.54
2016-04-09T03:13:58.970Z,47.34
2016-04-09T03:14:58.988Z,47.44
2016-04-09T03:15:59.007Z,47.44
2016-04-09T03:16:59.040Z,47.34
2016-04-09T03:17:59.075Z,47.44
2016-04-09T03:18:58.905Z,47.54
2016-04-09T03:19:59.095Z,47.54
2016-04-09T03:20:58.958Z,47.63
2016-04-09T03:21:59.131Z,47.82
2016-04-09T03:22:59.150Z,48.02
2016-04-09T03:23:59.152Z,47.73
2016-04-09T03:24:59.186Z,47.82
2016-04-09T03:25:59.205Z,47.92
2016-04-09T03:26:59.067Z,47.82
2016-04-09T03:27:59.242Z,47.73
2016-04-09T03:28:59.260Z,47.82
2016-04-09T03:29:59.294Z,47.73
2016-04-09T03:30:59.313Z,48.18
2016-04-09T03:31:59.315Z,48.18
2016-04-09T03:32:59.365Z,47.54
2016-04-09T03:33:59.352Z,48.21
2016-04-09T03:34:59.385Z,48.11
2016-04-09T03:35:59.405Z,47.52
2016-04-09T03:36:59.282Z,47.89
2016-04-09T03:37:59.441Z,47.92
2016-04-09T03:38:59.460Z,47.89
2016-04-09T03:39:59.493Z,48.02
2016-04-09T03:40:59.512Z,47.92
2016-04-09T03:41:59.529Z,47.8
2016-04-09T03:42:59.532Z,48.27
2016-04-09T03:43:59.551Z,47.99
2016-04-09T03:44:59.584Z,48.08
2016-04-09T03:45:59.603Z,48.08
2016-04-09T03:46:59.636Z,48.08
2016-04-09T03:47:59.655Z,48.08
2016-04-09T03:48:59.642Z,48.08
2016-04-09T03:49:59.676Z,48.08
2016-04-09T03:50:59.695Z,47.99
2016-04-09T03:51:59.712Z,47.99
2016-04-09T03:52:59.762Z,48.18
2016-04-09T03:53:59.749Z,48.37
2016-04-09T03:54:59.783Z,48.18
2016-04-09T03:55:59.786Z,48.08
2016-04-09T03:56:59.804Z,48.18
2016-04-09T03:57:59.838Z,48.56
2016-04-09T03:58:59.840Z,49.04
2016-04-09T03:59:59.858Z,48.27
2016-04-09T04:00:59.877Z,48.37
2016-04-09T04:01:59.896Z,48.27
2016-04-09T04:02:59.930Z,48.85
2016-04-09T04:03:59.933Z,48.85
2016-04-09T04:04:59.951Z,48.47
2016-04-09T04:05:59.985Z,48.37
2016-04-09T04:07:00.003Z,48.37
2016-04-09T04:08:00.021Z,48.37
2016-04-09T04:09:00.040Z,48.37
2016-04-09T04:10:00.057Z,48.27
2016-04-09T04:11:00.076Z,48.56
2016-04-09T04:12:00.095Z,48.47
2016-04-09T04:13:00.113Z,49.13
2016-04-09T04:14:00.132Z,48.56
2016-04-09T04:15:00.165Z,48.56
2016-04-09T04:16:00.168Z,49.13
2016-04-09T04:17:00.201Z,49.04
2016-04-09T04:18:00.220Z,49.04
2016-04-09T04:19:00.223Z,48.75
2016-04-09T04:20:00.256Z,49.13
2016-04-09T04:21:00.275Z,49.04
2016-04-09T04:22:00.277Z,48.94
2016-04-09T04:23:00.311Z,48.66
2016-04-09T04:24:00.330Z,48.85
2016-04-09T04:25:00.347Z,48.94
2016-04-09T04:26:00.367Z,48.75
2016-04-09T04:27:00.385Z,48.85
2016-04-09T04:28:00.403Z,48.85
2016-04-09T04:29:00.422Z,49.04
2016-04-09T04:30:00.440Z,49.04
2016-04-09T04:31:00.458Z,49.13
2016-04-09T04:32:00.477Z,49.13
2016-04-09T04:33:00.510Z,49.58
2016-04-09T04:34:00.529Z,49.13
2016-04-09T04:35:00.531Z,49.04
2016-04-09T04:36:00.565Z,49.23
2016-04-09T04:37:00.583Z,49.13
2016-04-09T04:38:00.601Z,50.09
2016-04-09T04:39:00.621Z,49.23
2016-04-09T04:40:00.623Z,49.13
2016-04-09T04:41:00.657Z,49.99
2016-04-09T04:42:00.676Z,49.3
2016-04-09T04:43:00.693Z,49.23
2016-04-09T04:44:00.712Z,49.61
2016-04-09T04:45:00.729Z,49.2
2016-04-09T04:46:00.748Z,49.32
2016-04-09T04:47:00.767Z,49.42
2016-04-09T04:48:00.784Z,49.42
2016-04-09T04:49:00.803Z,49.99
2016-04-09T04:50:00.822Z,49.96
2016-04-09T04:51:00.840Z,49.51
2016-04-09T04:52:00.859Z,50.15
2016-04-09T04:53:00.876Z,50.15
2016-04-09T04:54:00.895Z,49.9
2016-04-09T04:55:00.913Z,49.58
2016-04-09T04:56:00.931Z,49.68
2016-04-09T04:57:00.950Z,49.68
2016-04-09T04:58:00.968Z,49.77
2016-04-09T04:59:01.002Z,49.87
2016-04-09T05:00:01.005Z,49.87
2016-04-09T05:01:01.022Z,49.77
2016-04-09T05:02:01.042Z,50.15
2016-04-09T05:03:01.075Z,49.87
2016-04-09T05:04:01.094Z,50.06
2016-04-09T05:05:01.097Z,49.87
2016-04-09T05:06:01.130Z,49.96
2016-04-09T05:07:01.149Z,49.87
2016-04-09T05:08:01.166Z,49.68
2016-04-09T05:09:01.185Z,49.77
2016-04-09T05:10:01.204Z,49.68
2016-04-09T05:11:01.221Z,49.68
2016-04-09T05:12:01.240Z,49.77
2016-04-09T05:13:01.289Z,50.44
2016-04-09T05:14:01.276Z,50.35
2016-04-09T05:15:01.295Z,49.58
2016-04-09T05:16:01.313Z,49.87
2016-04-09T05:17:01.332Z,49.77
2016-04-09T05:18:01.350Z,50.35
2016-04-09T05:19:01.384Z,50.44
2016-04-09T05:20:01.402Z,50.35
2016-04-09T05:21:01.436Z,50.06
2016-04-09T05:22:01.439Z,50.25
2016-04-09T05:23:01.457Z,50.25
2016-04-09T05:24:01.475Z,50.15
2016-04-09T05:25:01.479Z,50.15
2016-04-09T05:26:01.512Z,50.06
2016-04-09T05:27:01.515Z,50.35
2016-04-09T05:28:01.565Z,50.06
2016-04-09T05:29:01.567Z,50.25
2016-04-09T05:30:01.570Z,50.44
2016-04-09T05:31:01.603Z,50.44
2016-04-09T05:32:01.622Z,50.15
2016-04-09T05:33:01.625Z,50.35
2016-04-09T05:34:01.658Z,50.15
2016-04-09T05:35:01.677Z,49.77
2016-04-09T05:36:01.695Z,50.63
2016-04-09T05:37:01.713Z,50.35
2016-04-09T05:38:01.732Z,50.25
2016-04-09T05:39:01.766Z,50.46
2016-04-09T05:40:01.785Z,50.35
2016-04-09T05:41:01.787Z,50.56
2016-04-09T05:42:01.805Z,50.56
2016-04-09T05:43:01.823Z,50.75
2016-04-09T05:44:01.842Z,50.73
2016-04-09T05:45:01.876Z,50.66
2016-04-09T05:46:01.878Z,50.63
2016-04-09T05:47:01.896Z,50.75
2016-04-09T05:48:01.914Z,50.82
2016-04-09T05:49:01.933Z,50.56
2016-04-09T05:50:01.951Z,50.75
2016-04-09T05:51:01.970Z,50.66
2016-04-09T05:52:02.003Z,50.85
2016-04-09T05:53:02.022Z,50.85
2016-04-09T05:54:02.040Z,50.94
2016-04-09T05:55:02.043Z,50.66
2016-04-09T05:56:02.061Z,50.46
2016-04-09T05:57:02.081Z,50.75
2016-04-09T05:58:02.114Z,50.94
2016-04-09T05:59:02.117Z,51.14
2016-04-09T06:00:02.150Z,50.75
2016-04-09T06:01:02.169Z,51.14
2016-04-09T06:02:02.172Z,51.04
2016-04-09T06:03:02.205Z,51.23
2016-04-09T06:04:02.208Z,50.85
2016-04-09T06:05:02.241Z,51.42
2016-04-09T06:06:02.260Z,51.61
2016-04-09T06:07:02.279Z,51.32
2016-04-09T06:08:02.141Z,51.23
2016-04-09T06:09:02.316Z,51.23
2016-04-09T06:10:02.333Z,51.42
2016-04-09T06:11:02.352Z,51.32
2016-04-09T06:12:02.370Z,51.32
2016-04-09T06:13:02.388Z,51.51
2016-04-09T06:14:02.423Z,51.42
2016-04-09T06:15:02.425Z,51.61
2016-04-09T06:16:02.444Z,51.04
2016-04-09T06:17:02.462Z,51.14
2016-04-09T06:18:02.480Z,51.04
2016-04-09T06:19:05.499Z,51.32
2016-04-09T06:20:02.517Z,51.32
2016-04-09T06:21:02.566Z,51.51
2016-04-09T06:22:02.553Z,50.85
2016-04-09T06:23:02.572Z,51.23
2016-04-09T06:24:02.605Z,51.25
2016-04-09T06:25:02.608Z,51.25
2016-04-09T06:26:02.627Z,51.42
2016-04-09T06:27:02.661Z,51.35
2016-04-09T06:28:02.664Z,51.35
2016-04-09T06:29:02.697Z,51.25
2016-04-09T06:30:02.716Z,51.54
2016-04-09T06:31:02.734Z,50.97
2016-04-09T06:32:02.752Z,51.06
2016-04-09T06:33:02.770Z,51.35
2016-04-09T06:34:02.788Z,51.25
2016-04-09T06:35:02.792Z,51.64
2016-04-09T06:36:02.825Z,51.35
2016-04-09T06:37:02.844Z,51.64
2016-04-09T06:38:02.863Z,51.73
2016-04-09T06:39:02.880Z,51.73
2016-04-09T06:40:02.899Z,51.73
2016-04-09T06:41:02.916Z,51.73
2016-04-09T06:42:02.936Z,51.82
2016-04-09T06:43:02.954Z,51.73
2016-04-09T06:44:02.972Z,52.01
2016-04-09T06:45:02.990Z,51.82
2016-04-09T06:46:03.009Z,51.76
2016-04-09T06:47:03.026Z,52.04
2016-04-09T06:48:03.060Z,51.95
2016-04-09T06:49:03.079Z,52.04
2016-04-09T06:50:03.129Z,51.85
2016-04-09T06:51:03.116Z,52.14
2016-04-09T06:52:03.134Z,52.04
2016-04-09T06:53:03.153Z,52.14
2016-04-09T06:54:03.199Z,52.04
2016-04-09T06:55:03.276Z,51.85
2016-04-09T06:56:03.339Z,51.85
2016-04-09T06:57:03.402Z,51.85
2016-04-09T06:58:03.465Z,51.85
2016-04-09T06:59:03.485Z,51.88
2016-04-09T07:00:03.550Z,51.56
2016-04-09T07:01:03.569Z,51.47
2016-04-09T07:02:03.602Z,51.59
2016-04-09T07:03:03.637Z,51.31
2016-04-09T07:04:03.661Z,51.4
2016-04-09T07:05:03.685Z,51.59
2016-04-09T07:06:03.709Z,50.63
2016-04-09T07:07:03.733Z,50.92
2016-04-09T07:08:03.757Z,50.83
2016-04-09T07:09:03.778Z,50.54
2016-04-09T07:10:03.814Z,50.92
2016-04-09T07:11:03.819Z,50.73
2016-04-09T07:12:03.855Z,50.83
2016-04-09T07:13:03.876Z,50.67
2016-04-09T07:14:03.894Z,50.54
2016-04-09T07:15:03.915Z,49.9
2016-04-09T07:16:03.934Z,50.09
2016-04-09T07:17:03.953Z,50.57
2016-04-09T07:18:03.987Z,50.38
2016-04-09T07:19:03.990Z,50.57
2016-04-09T07:20:04.025Z,50.09
2016-04-09T07:21:04.027Z,49.71
2016-04-09T07:22:04.061Z,49.62
2016-04-09T07:23:04.094Z,49.71
2016-04-09T07:24:04.097Z,49.99
2016-04-09T07:25:04.115Z,50.57
2016-04-09T07:26:04.118Z,49.73
2016-04-09T07:27:04.152Z,49.54
2016-04-09T07:28:04.186Z,49.54
2016-04-09T07:29:04.189Z,49.44
2016-04-09T07:30:04.207Z,49.93
2016-04-09T07:31:04.226Z,49.35
2016-04-09T07:32:04.243Z,49.16
2016-04-09T07:33:04.262Z,49.07
2016-04-09T07:34:04.296Z,49.26
2016-04-09T07:35:04.376Z,49.28
2016-04-09T07:36:04.332Z,49.35
2016-04-09T07:37:04.367Z,48.97
2016-04-09T07:38:04.400Z,49.18
2016-04-09T07:39:04.418Z,49.28
2016-04-09T07:40:04.421Z,48.71
2016-04-09T07:41:04.424Z,48.52
2016-04-09T07:42:04.458Z,48.52
2016-04-09T07:43:04.476Z,48.13
2016-04-09T07:44:04.495Z,48.13
2016-04-09T07:45:04.514Z,48.44
2016-04-09T07:46:04.532Z,47.97
2016-04-09T07:47:04.581Z,48.25
2016-04-09T07:48:04.584Z,48.44
2016-04-09T07:49:04.586Z,47.97
2016-04-09T07:50:04.620Z,47.97
2016-04-09T07:51:04.639Z,47.97
2016-04-09T07:52:04.657Z,47.97
2016-04-09T07:53:04.675Z,48.07
2016-04-09T07:54:04.693Z,47.68
2016-04-09T07:55:04.711Z,47.78
2016-04-09T07:56:04.746Z,47.61
2016-04-09T07:57:04.749Z,47.52
2016-04-09T07:58:04.891Z,47.61
2016-04-09T07:59:04.801Z,46.94
2016-04-09T08:00:04.819Z,47.03
2016-04-09T08:01:04.837Z,47.23
2016-04-09T08:02:04.871Z,47.23
2016-04-09T08:03:04.717Z,46.94
2016-04-09T08:04:04.970Z,46.46
2016-04-09T08:05:04.926Z,46.27
2016-04-09T08:06:04.945Z,45.98
2016-04-09T08:07:04.963Z,46.01
2016-04-09T08:08:04.981Z,46.01
2016-04-09T08:09:04.999Z,45.62
2016-04-09T08:10:05.034Z,45.72
2016-04-09T08:11:05.037Z,45.34
2016-04-09T08:12:05.070Z,45.43
2016-04-09T08:13:05.089Z,45.24
2016-04-09T08:14:05.107Z,45.24
2016-04-09T08:15:05.140Z,45.24
2016-04-09T08:16:05.159Z,45.24
2016-04-09T08:17:05.162Z,45.07
2016-04-09T08:18:05.195Z,45.07
2016-04-09T08:19:05.214Z,44.88
2016-04-09T08:20:05.233Z,44.79
2016-04-09T08:21:05.266Z,44.69
2016-04-09T08:22:05.284Z,44.69
2016-04-09T08:23:05.303Z,44.59
2016-04-09T08:24:05.337Z,44.59
2016-04-09T08:25:05.339Z,44.31
2016-04-09T08:26:05.374Z,44.59
2016-04-09T08:27:05.392Z,44.13
2016-04-09T08:28:05.410Z,43.66
2016-04-09T08:29:05.538Z,43.85
2016-04-09T08:30:05.462Z,43.27
2016-04-09T08:31:05.480Z,43.27
2016-04-09T08:32:05.483Z,42.99
2016-04-09T08:33:05.518Z,42.51
2016-04-09T08:34:05.535Z,42.13
2016-04-09T08:35:05.554Z,42.03
2016-04-09T08:36:05.587Z,41.96
2016-04-09T08:37:05.591Z,41.57
2016-04-09T08:38:05.624Z,40.71
2016-04-09T08:39:05.643Z,41
2016-04-09T08:40:05.676Z,41
2016-04-09T08:41:05.695Z,41
2016-04-09T08:42:05.713Z,40.81
2016-04-09T08:43:05.748Z,40.33
2016-04-09T08:44:05.750Z,40.52
2016-04-09T08:45:05.862Z,40.16
2016-04-09T08:46:05.803Z,40.06
2016-04-09T08:47:05.820Z,39.87
2016-04-09T08:48:05.854Z,39.87
2016-04-09T08:49:05.998Z,39.87
2016-04-09T08:50:05.876Z,39.58
2016-04-09T08:51:05.909Z,39.48
2016-04-09T08:52:05.928Z,39.39
2016-04-09T08:53:05.947Z,39.1
2016-04-09T08:54:05.980Z,38.81
2016-04-09T08:55:05.998Z,38.91
2016-04-09T08:56:06.017Z,38.91
2016-04-09T08:57:06.035Z,38.83
2016-04-09T08:58:06.069Z,39.03
2016-04-09T08:59:06.088Z,39.12
2016-04-09T09:00:06.105Z,38.74
2016-04-09T09:01:06.138Z,38.74
2016-04-09T09:02:06.158Z,38.83
2016-04-09T09:03:06.176Z,38.45
2016-04-09T09:04:06.335Z,37.87
2016-04-09T09:05:06.229Z,37.51
2016-04-09T09:06:06.247Z,37.51
2016-04-09T09:07:06.265Z,37.51
2016-04-09T09:08:06.300Z,37.41
2016-04-09T09:09:06.302Z,37.32
2016-04-09T09:10:06.336Z,37.03
2016-04-09T09:11:06.355Z,37.03
2016-04-09T09:12:06.374Z,36.55
2016-04-09T09:13:06.797Z,36.84
2016-04-09T09:14:06.425Z,36.46
2016-04-09T09:15:06.444Z,36.55
2016-04-09T09:16:06.462Z,36.65
2016-04-09T09:17:06.496Z,36.16
2016-04-09T09:18:06.514Z,35.97
2016-04-09T09:19:06.563Z,35.42
2016-04-09T09:20:06.551Z,35.61
2016-04-09T09:21:06.584Z,35.13
2016-04-09T09:22:06.603Z,35.22
2016-04-09T09:23:06.637Z,35.42
2016-04-09T09:24:06.656Z,35.32
2016-04-09T09:25:06.673Z,35.22
2016-04-09T09:26:06.707Z,35.22
2016-04-09T09:27:06.726Z,34.84
2016-04-09T09:28:06.759Z,34.84
2016-04-09T09:29:06.778Z,34.76
2016-04-09T09:30:06.797Z,34.95
2016-04-09T09:31:06.815Z,34.86
2016-04-09T09:32:06.833Z,35.05
2016-04-09T09:33:06.867Z,35.14
2016-04-09T09:34:06.917Z,35.14
2016-04-09T09:35:06.903Z,35.43
2016-04-09T09:36:06.953Z,35.26
2016-04-09T09:37:06.972Z,34.86
2016-04-09T09:38:06.989Z,34.11
2016-04-09T09:39:07.024Z,34.11
2016-04-09T09:40:07.042Z,33.62
2016-04-09T09:41:07.060Z,33.72
2016-04-09T09:42:07.079Z,33.62
2016-04-09T09:43:07.097Z,33.44
2016-04-09T09:44:07.130Z,33.53
2016-04-09T09:45:07.149Z,33.53
2016-04-09T09:46:07.168Z,33.34
2016-04-09T09:47:07.202Z,32.97
2016-04-09T09:48:07.220Z,33.16
2016-04-09T09:49:07.140Z,32.38
2016-04-09T09:50:07.358Z,32.39
2016-04-09T09:51:07.123Z,32.97
2016-04-09T09:52:07.317Z,32.97
2016-04-09T09:53:07.359Z,32.97
2016-04-09T09:54:07.455Z,32.87
2016-04-09T09:55:07.380Z,32.87
2016-04-09T09:56:07.414Z,32.87
2016-04-09T09:57:07.433Z,32.87
2016-04-09T09:58:07.451Z,32.97
2016-04-09T09:59:07.485Z,32.31
2016-04-09T10:00:07.503Z,32.21
2016-04-09T10:01:07.538Z,32.21
2016-04-09T10:02:07.556Z,31.64
2016-04-09T10:03:07.575Z,31.74
2016-04-09T10:04:07.500Z,31.93
2016-04-09T10:05:07.627Z,31.74
2016-04-09T10:06:07.645Z,31.37
2016-04-09T10:07:07.663Z,30.98
2016-04-09T10:08:07.714Z,30.88
2016-04-09T10:09:07.716Z,30.79
2016-04-09T10:10:07.750Z,30.5
2016-04-09T10:11:07.769Z,30.5
2016-04-09T10:12:07.802Z,30.98
2016-04-09T10:13:07.820Z,30.88
2016-04-09T10:14:07.854Z,30.11
2016-04-09T10:15:07.874Z,30.31
2016-04-09T10:16:07.907Z,30.11
2016-04-09T10:17:07.924Z,29.63
2016-04-09T10:18:07.975Z,29.54
2016-04-09T10:19:07.993Z,29.83
2016-04-09T10:20:08.012Z,30.02
2016-04-09T10:21:08.030Z,29.84
2016-04-09T10:22:08.048Z,30.32
2016-04-09T10:23:08.082Z,30.52
2016-04-09T10:24:08.131Z,30.42
2016-04-09T10:25:08.118Z,30.42
2016-04-09T10:26:08.153Z,29.84
2016-04-09T10:27:08.187Z,29.27
2016-04-09T10:28:08.205Z,29.46
2016-04-09T10:29:08.223Z,29.46
2016-04-09T10:30:08.256Z,29.46
2016-04-09T10:31:08.275Z,29.27
2016-04-09T10:32:08.309Z,29.36
2016-04-09T10:33:08.328Z,28.78
2016-04-09T10:34:08.439Z,28.97
2016-04-09T10:35:08.380Z,29.27
2016-04-09T10:36:08.398Z,28.78
2016-04-09T10:37:08.433Z,28.69
2016-04-09T10:38:08.451Z,28.88
2016-04-09T10:39:08.484Z,28.8
2016-04-09T10:40:08.502Z,28.8
2016-04-09T10:41:08.537Z,28.89
2016-04-09T10:42:08.555Z,28.41
2016-04-09T10:43:08.574Z,28.61
2016-04-09T10:44:08.623Z,28.61
2016-04-09T10:45:08.641Z,28.13
2016-04-09T10:46:08.660Z,28.61
2016-04-09T10:47:08.693Z,28.61
2016-04-09T10:48:08.727Z,28.31
2016-04-09T10:49:09.011Z,27.93
2016-04-09T10:50:08.780Z,27.74
2016-04-09T10:51:08.799Z,27.45
2016-04-09T10:52:08.816Z,27.55
2016-04-09T10:53:08.850Z,27.55
2016-04-09T10:54:08.868Z,27.06
2016-04-09T10:55:08.902Z,27.45
2016-04-09T10:56:08.921Z,27.64
2016-04-09T10:57:08.955Z,27.64
2016-04-09T10:58:08.926Z,27.45
2016-04-09T10:59:09.194Z,27.83
2016-04-09T11:00:09.025Z,27.45
2016-04-09T11:01:09.059Z,27.55
2016-04-09T11:02:09.281Z,27.45
2016-04-09T11:03:09.112Z,27.64
2016-04-09T11:04:09.131Z,27.55
2016-04-09T11:05:09.164Z,27.64
2016-04-09T11:06:09.181Z,27.35
2016-04-09T11:07:09.200Z,27.64
2016-04-09T11:08:09.234Z,27.45
2016-04-09T11:09:09.269Z,27.44
2016-04-09T11:10:09.286Z,27.72
2016-04-09T11:11:09.321Z,27.34
2016-04-09T11:12:09.354Z,27.53
2016-04-09T11:13:09.372Z,27.92
2016-04-09T11:14:09.407Z,27.82
2016-04-09T11:15:09.425Z,27.82
2016-04-09T11:16:09.459Z,27.62
2016-04-09T11:17:09.493Z,27.82
2016-04-09T11:18:09.496Z,27.72
2016-04-09T11:19:09.529Z,27.92
2016-04-09T11:20:09.563Z,27.82
2016-04-09T11:21:09.582Z,27.82
2016-04-09T11:22:09.616Z,27.92
2016-04-09T11:23:09.634Z,28.02
2016-04-09T11:24:09.652Z,27.82
2016-04-09T11:25:09.687Z,27.93
2016-04-09T11:26:09.705Z,27.82
2016-04-09T11:27:09.738Z,27.53
2016-04-09T11:28:09.773Z,27.82
2016-04-09T11:29:09.791Z,27.35
2016-04-09T11:30:09.825Z,27.35
2016-04-09T11:31:09.843Z,27.55
2016-04-09T11:32:09.877Z,27.26
2016-04-09T11:33:09.895Z,27.35
2016-04-09T11:34:09.929Z,27.55
2016-04-09T11:35:09.963Z,27.45
2016-04-09T11:36:09.982Z,26.97
2016-04-09T11:37:10.000Z,27.05
2016-04-09T11:38:10.017Z,26.78
2016-04-09T11:39:10.067Z,26.87
2016-04-09T11:40:10.086Z,26.95
2016-04-09T11:41:10.119Z,27.24
2016-04-09T11:42:10.153Z,27.44
2016-04-09T11:43:10.172Z,26.95
2016-04-09T11:44:10.206Z,26.95
2016-04-09T11:45:10.224Z,27.44
2016-04-09T11:46:10.243Z,27.15
2016-04-09T11:47:10.277Z,27.05
2016-04-09T11:48:10.294Z,26.95
2016-04-09T11:49:10.329Z,27.05
2016-04-09T11:50:10.347Z,27.05
2016-04-09T11:51:10.381Z,27.05
2016-04-09T11:52:10.399Z,27.15
2016-04-09T11:53:10.433Z,27.05
2016-04-09T11:54:10.451Z,27.34
2016-04-09T11:55:10.485Z,27.05
2016-04-09T11:56:10.520Z,26.95
2016-04-09T11:57:10.537Z,27.05
2016-04-09T11:58:10.571Z,26.76
2016-04-09T11:59:10.590Z,27.05
2016-04-09T12:00:10.624Z,26.86
2016-04-09T12:01:10.658Z,26.95
2016-04-09T12:02:10.676Z,27.15
2016-04-09T12:03:10.710Z,26.95
2016-04-09T12:04:10.728Z,26.18
2016-04-09T12:05:10.762Z,26.09
2016-04-09T12:06:10.781Z,26.2
2016-04-09T12:07:10.799Z,26.1
2016-04-09T12:08:10.833Z,26.58
2016-04-09T12:09:10.867Z,25.99
2016-04-09T12:10:11.103Z,26
2016-04-09T12:11:10.919Z,26
2016-04-09T12:12:10.953Z,26
2016-04-09T12:13:10.815Z,26.29
2016-04-09T12:14:11.005Z,26.18
2016-04-09T12:15:11.024Z,26.1
2016-04-09T12:16:11.058Z,26.48
2016-04-09T12:17:11.076Z,26.47
2016-04-09T12:18:11.110Z,26.48
2016-04-09T12:19:11.128Z,26.2
2016-04-09T12:20:11.162Z,26.2
2016-04-09T12:21:11.180Z,26.2
2016-04-09T12:22:11.215Z,26.68
2016-04-09T12:23:11.232Z,26.78
2016-04-09T12:24:11.266Z,26.78
2016-04-09T12:25:11.301Z,26.78
2016-04-09T12:26:11.334Z,26.1
2016-04-09T12:27:11.353Z,26.48
2016-04-09T12:28:11.402Z,26.1
2016-04-09T12:29:11.405Z,26.29
2016-04-09T12:30:11.439Z,26.29
2016-04-09T12:31:11.457Z,26.2
2016-04-09T12:32:11.492Z,26.29
2016-04-09T12:33:11.510Z,26.29
2016-04-09T12:34:11.544Z,26.2
2016-04-09T12:35:11.562Z,26.2
2016-04-09T12:36:11.596Z,26
2016-04-09T12:37:11.614Z,25.91
2016-04-09T12:38:11.633Z,26
2016-04-09T12:39:11.682Z,25.62
2016-04-09T12:40:11.701Z,25.52
2016-04-09T12:41:11.734Z,25.52
2016-04-09T12:42:11.752Z,25.62
2016-04-09T12:43:11.786Z,26.1
2016-04-09T12:44:11.805Z,26
2016-04-09T12:45:11.839Z,26
2016-04-09T12:46:11.858Z,25.81
2016-04-09T12:47:11.892Z,25.42
2016-04-09T12:48:11.925Z,25.6
2016-04-09T12:49:11.958Z,25.99
2016-04-09T12:50:11.977Z,26.28
2016-04-09T12:51:11.996Z,26.18
2016-04-09T12:52:12.030Z,26.28
2016-04-09T12:53:12.049Z,26.18
2016-04-09T12:54:12.083Z,26.37
2016-04-09T12:55:12.116Z,26.28